sensor_id;sensor_type;location;lat;lon;timestamp;P1;durP1;ratioP1;P2;durP2;ratioP2
71715;SDS011;59568;52.128;5.434;2024-02-15T00:00:18;9.65;;;3.80;;
71715;SDS011;59568;52.128;5.434;2024-02-15T00:02:45;9.23;;;3.97;;
71715;SDS011;59568;52.128;5.434;2024-02-15T00:05:12;13.07;;;4.05;;
71715;SDS011;59568;52.128;5.434;2024-02-15T00:07:41;13.93;;;4.32;;
71715;SDS011;59568;52.128;5.434;2024-02-15T00:10:08;9.73;;;4.15;;
71715;SDS011;59568;52.128;5.434;2024-02-15T00:12:35;9.73;;;4.40;;
71715;SDS011;59568;52.128;5.434;2024-02-15T00:15:02;9.90;;;4.30;;
71715;SDS011;59568;52.128;5.434;2024-02-15T00:17:31;13.25;;;4.05;;
71715;SDS011;59568;52.128;5.434;2024-02-15T00:19:59;15.35;;;4.95;;
71715;SDS011;59568;52.128;5.434;2024-02-15T00:22:26;9.57;;;4.03;;
71715;SDS011;59568;52.128;5.434;2024-02-15T00:24:53;12.63;;;4.05;;
71715;SDS011;59568;52.128;5.434;2024-02-15T00:27:20;12.37;;;3.53;;
71715;SDS011;59568;52.128;5.434;2024-02-15T00:29:47;8.25;;;3.50;;
71715;SDS011;59568;52.128;5.434;2024-02-15T00:32:14;10.45;;;4.50;;
71715;SDS011;59568;52.128;5.434;2024-02-15T00:34:42;10.50;;;4.25;;
71715;SDS011;59568;52.128;5.434;2024-02-15T00:37:09;12.93;;;4.18;;
71715;SDS011;59568;52.128;5.434;2024-02-15T00:39:36;8.00;;;4.27;;
71715;SDS011;59568;52.128;5.434;2024-02-15T00:42:03;11.68;;;3.97;;
71715;SDS011;59568;52.128;5.434;2024-02-15T00:44:32;8.52;;;3.45;;
71715;SDS011;59568;52.128;5.434;2024-02-15T00:46:59;9.95;;;3.80;;
71715;SDS011;59568;52.128;5.434;2024-02-15T00:49:26;5.60;;;3.50;;
71715;SDS011;59568;52.128;5.434;2024-02-15T00:51:55;8.37;;;3.53;;
71715;SDS011;59568;52.128;5.434;2024-02-15T00:54:22;10.05;;;3.67;;
71715;SDS011;59568;52.128;5.434;2024-02-15T00:56:49;9.77;;;3.63;;
71715;SDS011;59568;52.128;5.434;2024-02-15T00:59:18;7.75;;;3.30;;
71715;SDS011;59568;52.128;5.434;2024-02-15T01:01:45;7.60;;;3.00;;
71715;SDS011;59568;52.128;5.434;2024-02-15T01:04:13;9.03;;;3.33;;
71715;SDS011;59568;52.128;5.434;2024-02-15T01:06:40;10.05;;;3.00;;
71715;SDS011;59568;52.128;5.434;2024-02-15T01:09:08;7.78;;;3.15;;
71715;SDS011;59568;52.128;5.434;2024-02-15T01:11:36;5.68;;;2.70;;
71715;SDS011;59568;52.128;5.434;2024-02-15T01:14:04;6.38;;;3.25;;
71715;SDS011;59568;52.128;5.434;2024-02-15T01:16:31;8.47;;;2.67;;
71715;SDS011;59568;52.128;5.434;2024-02-15T01:18:58;9.85;;;2.80;;
71715;SDS011;59568;52.128;5.434;2024-02-15T01:21:25;7.93;;;3.30;;
71715;SDS011;59568;52.128;5.434;2024-02-15T01:23:52;10.20;;;3.30;;
71715;SDS011;59568;52.128;5.434;2024-02-15T01:26:20;11.05;;;4.03;;
71715;SDS011;59568;52.128;5.434;2024-02-15T01:28:47;9.70;;;3.67;;
71715;SDS011;59568;52.128;5.434;2024-02-15T01:31:14;8.75;;;3.85;;
71715;SDS011;59568;52.128;5.434;2024-02-15T01:33:44;11.10;;;4.28;;
71715;SDS011;59568;52.128;5.434;2024-02-15T01:36:15;9.80;;;4.60;;
71715;SDS011;59568;52.128;5.434;2024-02-15T01:38:42;10.25;;;5.30;;
71715;SDS011;59568;52.128;5.434;2024-02-15T01:41:10;11.00;;;5.77;;
71715;SDS011;59568;52.128;5.434;2024-02-15T01:43:37;13.02;;;6.00;;
71715;SDS011;59568;52.128;5.434;2024-02-15T01:46:07;18.85;;;6.90;;
71715;SDS011;59568;52.128;5.434;2024-02-15T01:48:35;10.65;;;6.13;;
71715;SDS011;59568;52.128;5.434;2024-02-15T01:51:04;16.70;;;7.18;;
71715;SDS011;59568;52.128;5.434;2024-02-15T01:53:32;15.17;;;6.50;;
71715;SDS011;59568;52.128;5.434;2024-02-15T01:55:59;14.13;;;7.60;;
71715;SDS011;59568;52.128;5.434;2024-02-15T01:58:26;18.27;;;7.10;;
71715;SDS011;59568;52.128;5.434;2024-02-15T02:00:54;18.27;;;7.45;;
71715;SDS011;59568;52.128;5.434;2024-02-15T02:03:23;14.32;;;7.32;;
71715;SDS011;59568;52.128;5.434;2024-02-15T02:05:50;17.33;;;7.37;;
71715;SDS011;59568;52.128;5.434;2024-02-15T02:08:17;15.65;;;7.00;;
71715;SDS011;59568;52.128;5.434;2024-02-15T02:10:44;14.45;;;6.88;;
71715;SDS011;59568;52.128;5.434;2024-02-15T02:13:12;15.40;;;7.00;;
71715;SDS011;59568;52.128;5.434;2024-02-15T02:15:39;13.63;;;6.32;;
71715;SDS011;59568;52.128;5.434;2024-02-15T02:18:06;18.53;;;6.77;;
71715;SDS011;59568;52.128;5.434;2024-02-15T02:20:35;12.90;;;7.15;;
71715;SDS011;59568;52.128;5.434;2024-02-15T02:23:25;19.25;;;7.60;;
71715;SDS011;59568;52.128;5.434;2024-02-15T02:25:52;13.18;;;6.95;;
71715;SDS011;59568;52.128;5.434;2024-02-15T02:28:22;16.65;;;7.38;;
71715;SDS011;59568;52.128;5.434;2024-02-15T02:30:49;17.40;;;6.57;;
71715;SDS011;59568;52.128;5.434;2024-02-15T02:33:16;15.63;;;6.85;;
71715;SDS011;59568;52.128;5.434;2024-02-15T02:35:49;15.95;;;7.63;;
71715;SDS011;59568;52.128;5.434;2024-02-15T02:38:17;12.70;;;6.68;;
71715;SDS011;59568;52.128;5.434;2024-02-15T02:40:44;10.10;;;6.28;;
71715;SDS011;59568;52.128;5.434;2024-02-15T02:43:10;14.73;;;6.47;;
71715;SDS011;59568;52.128;5.434;2024-02-15T02:45:38;9.98;;;5.28;;
71715;SDS011;59568;52.128;5.434;2024-02-15T02:48:05;10.20;;;5.13;;
71715;SDS011;59568;52.128;5.434;2024-02-15T02:50:33;12.90;;;5.80;;
71715;SDS011;59568;52.128;5.434;2024-02-15T02:53:00;10.00;;;5.22;;
71715;SDS011;59568;52.128;5.434;2024-02-15T02:55:27;13.83;;;5.20;;
71715;SDS011;59568;52.128;5.434;2024-02-15T02:57:54;11.02;;;5.25;;
71715;SDS011;59568;52.128;5.434;2024-02-15T03:00:22;11.10;;;5.53;;
71715;SDS011;59568;52.128;5.434;2024-02-15T03:02:49;11.75;;;4.82;;
71715;SDS011;59568;52.128;5.434;2024-02-15T03:05:16;9.13;;;4.65;;
71715;SDS011;59568;52.128;5.434;2024-02-15T03:07:48;9.80;;;4.83;;
71715;SDS011;59568;52.128;5.434;2024-02-15T03:10:15;8.73;;;4.93;;
71715;SDS011;59568;52.128;5.434;2024-02-15T03:12:42;9.98;;;5.00;;
71715;SDS011;59568;52.128;5.434;2024-02-15T03:15:15;10.65;;;5.05;;
71715;SDS011;59568;52.128;5.434;2024-02-15T03:17:45;9.75;;;4.78;;
71715;SDS011;59568;52.128;5.434;2024-02-15T03:20:13;14.07;;;5.03;;
71715;SDS011;59568;52.128;5.434;2024-02-15T03:22:52;15.77;;;5.05;;
71715;SDS011;59568;52.128;5.434;2024-02-15T03:25:27;10.13;;;4.72;;
71715;SDS011;59568;52.128;5.434;2024-02-15T03:27:58;8.32;;;4.20;;
71715;SDS011;59568;52.128;5.434;2024-02-15T03:30:30;11.90;;;5.10;;
71715;SDS011;59568;52.128;5.434;2024-02-15T03:32:58;11.80;;;5.20;;
71715;SDS011;59568;52.128;5.434;2024-02-15T03:35:25;12.07;;;4.68;;
71715;SDS011;59568;52.128;5.434;2024-02-15T03:37:55;9.65;;;4.20;;
71715;SDS011;59568;52.128;5.434;2024-02-15T03:40:23;9.25;;;4.85;;
71715;SDS011;59568;52.128;5.434;2024-02-15T03:42:53;12.85;;;4.15;;
71715;SDS011;59568;52.128;5.434;2024-02-15T03:45:20;8.30;;;4.20;;
71715;SDS011;59568;52.128;5.434;2024-02-15T03:47:52;9.95;;;4.15;;
71715;SDS011;59568;52.128;5.434;2024-02-15T03:50:19;8.52;;;3.70;;
71715;SDS011;59568;52.128;5.434;2024-02-15T03:52:49;11.02;;;4.13;;
71715;SDS011;59568;52.128;5.434;2024-02-15T03:55:17;10.38;;;4.38;;
71715;SDS011;59568;52.128;5.434;2024-02-15T03:57:45;10.80;;;4.70;;
71715;SDS011;59568;52.128;5.434;2024-02-15T04:00:13;12.75;;;4.30;;
71715;SDS011;59568;52.128;5.434;2024-02-15T04:02:48;9.50;;;3.95;;
71715;SDS011;59568;52.128;5.434;2024-02-15T04:05:16;10.02;;;4.15;;
71715;SDS011;59568;52.128;5.434;2024-02-15T04:07:45;11.98;;;4.30;;
71715;SDS011;59568;52.128;5.434;2024-02-15T04:10:13;10.23;;;3.60;;
71715;SDS011;59568;52.128;5.434;2024-02-15T04:12:40;10.25;;;4.20;;
71715;SDS011;59568;52.128;5.434;2024-02-15T04:15:10;11.25;;;3.83;;
71715;SDS011;59568;52.128;5.434;2024-02-15T04:17:44;13.63;;;3.47;;
71715;SDS011;59568;52.128;5.434;2024-02-15T04:20:12;16.40;;;4.03;;
71715;SDS011;59568;52.128;5.434;2024-02-15T04:22:42;8.60;;;3.63;;
71715;SDS011;59568;52.128;5.434;2024-02-15T04:25:10;10.48;;;3.72;;
71715;SDS011;59568;52.128;5.434;2024-02-15T04:27:38;11.75;;;3.55;;
71715;SDS011;59568;52.128;5.434;2024-02-15T04:30:05;11.52;;;3.85;;
71715;SDS011;59568;52.128;5.434;2024-02-15T04:32:35;11.45;;;4.13;;
71715;SDS011;59568;52.128;5.434;2024-02-15T04:35:03;11.77;;;3.40;;
71715;SDS011;59568;52.128;5.434;2024-02-15T04:37:34;8.38;;;3.28;;
71715;SDS011;59568;52.128;5.434;2024-02-15T04:40:03;7.15;;;3.38;;
71715;SDS011;59568;52.128;5.434;2024-02-15T04:42:38;10.85;;;3.53;;
71715;SDS011;59568;52.128;5.434;2024-02-15T04:45:12;6.90;;;2.90;;
71715;SDS011;59568;52.128;5.434;2024-02-15T04:47:42;10.07;;;3.27;;
71715;SDS011;59568;52.128;5.434;2024-02-15T04:50:13;12.15;;;3.85;;
71715;SDS011;59568;52.128;5.434;2024-02-15T04:52:40;14.68;;;3.63;;
71715;SDS011;59568;52.128;5.434;2024-02-15T04:55:12;17.15;;;3.10;;
71715;SDS011;59568;52.128;5.434;2024-02-15T04:57:39;10.30;;;3.22;;
71715;SDS011;59568;52.128;5.434;2024-02-15T05:00:07;9.90;;;3.00;;
71715;SDS011;59568;52.128;5.434;2024-02-15T05:02:38;12.02;;;4.15;;
71715;SDS011;59568;52.128;5.434;2024-02-15T05:05:11;8.52;;;3.35;;
71715;SDS011;59568;52.128;5.434;2024-02-15T05:07:41;10.05;;;3.17;;
71715;SDS011;59568;52.128;5.434;2024-02-15T05:10:09;13.35;;;3.63;;
71715;SDS011;59568;52.128;5.434;2024-02-15T05:12:39;16.83;;;3.70;;
71715;SDS011;59568;52.128;5.434;2024-02-15T05:15:09;10.50;;;3.13;;
71715;SDS011;59568;52.128;5.434;2024-02-15T05:17:39;9.68;;;3.78;;
71715;SDS011;59568;52.128;5.434;2024-02-15T05:20:10;8.32;;;3.60;;
71715;SDS011;59568;52.128;5.434;2024-02-15T05:22:39;9.55;;;3.63;;
71715;SDS011;59568;52.128;5.434;2024-02-15T05:25:15;8.73;;;3.43;;
71715;SDS011;59568;52.128;5.434;2024-02-15T05:27:48;15.63;;;4.00;;
71715;SDS011;59568;52.128;5.434;2024-02-15T05:30:15;6.70;;;3.53;;
71715;SDS011;59568;52.128;5.434;2024-02-15T05:32:42;12.15;;;3.90;;
71715;SDS011;59568;52.128;5.434;2024-02-15T05:35:12;9.38;;;3.72;;
71715;SDS011;59568;52.128;5.434;2024-02-15T05:37:39;10.27;;;3.67;;
71715;SDS011;59568;52.128;5.434;2024-02-15T05:40:06;10.88;;;3.45;;
71715;SDS011;59568;52.128;5.434;2024-02-15T05:42:33;9.95;;;3.63;;
71715;SDS011;59568;52.128;5.434;2024-02-15T05:47:54;7.85;;;3.78;;
71715;SDS011;59568;52.128;5.434;2024-02-15T05:50:22;6.73;;;3.57;;
71715;SDS011;59568;52.128;5.434;2024-02-15T05:52:51;9.13;;;3.80;;
71715;SDS011;59568;52.128;5.434;2024-02-15T05:55:19;10.80;;;4.07;;
71715;SDS011;59568;52.128;5.434;2024-02-15T05:57:46;5.00;;;3.10;;
71715;SDS011;59568;52.128;5.434;2024-02-15T06:00:13;9.30;;;3.25;;
71715;SDS011;59568;52.128;5.434;2024-02-15T06:02:48;11.43;;;3.73;;
71715;SDS011;59568;52.128;5.434;2024-02-15T06:05:17;7.00;;;3.33;;
71715;SDS011;59568;52.128;5.434;2024-02-15T06:07:44;8.77;;;3.30;;
71715;SDS011;59568;52.128;5.434;2024-02-15T06:10:13;5.95;;;3.30;;
71715;SDS011;59568;52.128;5.434;2024-02-15T06:12:41;7.03;;;3.65;;
71715;SDS011;59568;52.128;5.434;2024-02-15T06:15:09;8.70;;;3.30;;
71715;SDS011;59568;52.128;5.434;2024-02-15T06:17:43;5.95;;;3.13;;
71715;SDS011;59568;52.128;5.434;2024-02-15T06:20:14;8.77;;;3.38;;
71715;SDS011;59568;52.128;5.434;2024-02-15T06:22:45;8.60;;;3.10;;
71715;SDS011;59568;52.128;5.434;2024-02-15T06:25:13;7.65;;;3.65;;
71715;SDS011;59568;52.128;5.434;2024-02-15T06:27:42;6.50;;;3.70;;
71715;SDS011;59568;52.128;5.434;2024-02-15T06:30:09;8.75;;;3.65;;
71715;SDS011;59568;52.128;5.434;2024-02-15T06:32:56;11.38;;;4.10;;
71715;SDS011;59568;52.128;5.434;2024-02-15T06:35:43;9.02;;;3.88;;
71715;SDS011;59568;52.128;5.434;2024-02-15T06:38:28;10.20;;;3.60;;
71715;SDS011;59568;52.128;5.434;2024-02-15T06:41:14;9.37;;;3.37;;
71715;SDS011;59568;52.128;5.434;2024-02-15T06:43:41;9.65;;;4.18;;
71715;SDS011;59568;52.128;5.434;2024-02-15T06:46:08;6.72;;;3.47;;
71715;SDS011;59568;52.128;5.434;2024-02-15T06:48:37;8.88;;;3.92;;
71715;SDS011;59568;52.128;5.434;2024-02-15T06:51:05;8.50;;;4.20;;
71715;SDS011;59568;52.128;5.434;2024-02-15T06:53:32;13.20;;;3.90;;
71715;SDS011;59568;52.128;5.434;2024-02-15T06:56:00;11.52;;;4.63;;
71715;SDS011;59568;52.128;5.434;2024-02-15T06:58:27;8.68;;;4.75;;
71715;SDS011;59568;52.128;5.434;2024-02-15T07:00:54;9.02;;;4.57;;
71715;SDS011;59568;52.128;5.434;2024-02-15T07:03:21;6.55;;;4.05;;
71715;SDS011;59568;52.128;5.434;2024-02-15T07:05:50;7.53;;;4.00;;
71715;SDS011;59568;52.128;5.434;2024-02-15T07:08:17;7.43;;;4.32;;
71715;SDS011;59568;52.128;5.434;2024-02-15T07:10:45;9.02;;;4.10;;
71715;SDS011;59568;52.128;5.434;2024-02-15T07:13:12;10.05;;;4.03;;
71715;SDS011;59568;52.128;5.434;2024-02-15T07:15:39;5.63;;;3.85;;
71715;SDS011;59568;52.128;5.434;2024-02-15T07:18:06;13.17;;;4.10;;
71715;SDS011;59568;52.128;5.434;2024-02-15T07:20:33;8.40;;;3.28;;
71715;SDS011;59568;52.128;5.434;2024-02-15T07:23:01;6.10;;;3.75;;
71715;SDS011;59568;52.128;5.434;2024-02-15T07:25:28;7.88;;;5.03;;
71715;SDS011;59568;52.128;5.434;2024-02-15T07:27:55;5.18;;;3.80;;
71715;SDS011;59568;52.128;5.434;2024-02-15T07:30:23;7.13;;;3.93;;
71715;SDS011;59568;52.128;5.434;2024-02-15T07:32:52;9.65;;;3.67;;
71715;SDS011;59568;52.128;5.434;2024-02-15T07:35:19;9.40;;;3.88;;
71715;SDS011;59568;52.128;5.434;2024-02-15T07:37:52;8.55;;;3.65;;
71715;SDS011;59568;52.128;5.434;2024-02-15T07:40:25;5.55;;;3.70;;
71715;SDS011;59568;52.128;5.434;2024-02-15T07:42:56;8.43;;;3.40;;
71715;SDS011;59568;52.128;5.434;2024-02-15T07:45:26;5.57;;;3.08;;
71715;SDS011;59568;52.128;5.434;2024-02-15T07:47:55;3.90;;;2.63;;
71715;SDS011;59568;52.128;5.434;2024-02-15T07:50:22;6.38;;;3.60;;
71715;SDS011;59568;52.128;5.434;2024-02-15T07:52:49;6.20;;;3.60;;
71715;SDS011;59568;52.128;5.434;2024-02-15T07:55:17;7.43;;;2.87;;
71715;SDS011;59568;52.128;5.434;2024-02-15T07:57:44;6.80;;;3.15;;
71715;SDS011;59568;52.128;5.434;2024-02-15T08:00:15;5.35;;;2.72;;
71715;SDS011;59568;52.128;5.434;2024-02-15T08:02:43;5.15;;;2.10;;
71715;SDS011;59568;52.128;5.434;2024-02-15T08:05:11;6.43;;;3.00;;
71715;SDS011;59568;52.128;5.434;2024-02-15T08:07:41;5.40;;;2.60;;
71715;SDS011;59568;52.128;5.434;2024-02-15T08:10:09;3.50;;;2.08;;
71715;SDS011;59568;52.128;5.434;2024-02-15T08:12:42;3.60;;;1.80;;
71715;SDS011;59568;52.128;5.434;2024-02-15T08:15:10;3.65;;;1.85;;
71715;SDS011;59568;52.128;5.434;2024-02-15T08:17:41;4.68;;;2.08;;
71715;SDS011;59568;52.128;5.434;2024-02-15T08:20:10;3.67;;;2.20;;
71715;SDS011;59568;52.128;5.434;2024-02-15T08:22:38;6.72;;;2.72;;
71715;SDS011;59568;52.128;5.434;2024-02-15T08:25:12;3.72;;;2.03;;
71715;SDS011;59568;52.128;5.434;2024-02-15T08:27:40;3.33;;;2.08;;
71715;SDS011;59568;52.128;5.434;2024-02-15T08:30:11;4.82;;;2.25;;
71715;SDS011;59568;52.128;5.434;2024-02-15T08:32:40;6.43;;;2.20;;
71715;SDS011;59568;52.128;5.434;2024-02-15T08:35:12;4.85;;;2.20;;
71715;SDS011;59568;52.128;5.434;2024-02-15T08:37:40;3.88;;;2.50;;
71715;SDS011;59568;52.128;5.434;2024-02-15T08:40:09;2.88;;;1.65;;
71715;SDS011;59568;52.128;5.434;2024-02-15T08:42:40;3.30;;;1.67;;
71715;SDS011;59568;52.128;5.434;2024-02-15T08:45:08;2.37;;;1.33;;
71715;SDS011;59568;52.128;5.434;2024-02-15T08:47:37;6.28;;;1.33;;
71715;SDS011;59568;52.128;5.434;2024-02-15T08:50:06;4.22;;;1.52;;
71715;SDS011;59568;52.128;5.434;2024-02-15T08:52:37;2.20;;;1.02;;
71715;SDS011;59568;52.128;5.434;2024-02-15T08:55:05;4.45;;;1.13;;
71715;SDS011;59568;52.128;5.434;2024-02-15T08:57:36;2.80;;;1.20;;
71715;SDS011;59568;52.128;5.434;2024-02-15T09:00:04;3.30;;;1.20;;
71715;SDS011;59568;52.128;5.434;2024-02-15T09:02:40;3.65;;;1.17;;
71715;SDS011;59568;52.128;5.434;2024-02-15T09:05:08;2.50;;;1.00;;
71715;SDS011;59568;52.128;5.434;2024-02-15T09:07:35;2.58;;;1.40;;
71715;SDS011;59568;52.128;5.434;2024-02-15T09:10:06;2.13;;;0.90;;
71715;SDS011;59568;52.128;5.434;2024-02-15T09:12:39;1.92;;;0.98;;
71715;SDS011;59568;52.128;5.434;2024-02-15T09:15:08;4.07;;;1.08;;
71715;SDS011;59568;52.128;5.434;2024-02-15T09:17:37;1.80;;;0.93;;
71715;SDS011;59568;52.128;5.434;2024-02-15T09:20:08;3.67;;;0.95;;
71715;SDS011;59568;52.128;5.434;2024-02-15T09:22:42;1.60;;;0.60;;
71715;SDS011;59568;52.128;5.434;2024-02-15T09:25:18;2.53;;;0.90;;
71715;SDS011;59568;52.128;5.434;2024-02-15T09:27:46;1.92;;;1.05;;
71715;SDS011;59568;52.128;5.434;2024-02-15T09:30:13;2.85;;;1.02;;
71715;SDS011;59568;52.128;5.434;2024-02-15T09:32:42;3.60;;;0.80;;
71715;SDS011;59568;52.128;5.434;2024-02-15T09:35:11;6.03;;;1.10;;
71715;SDS011;59568;52.128;5.434;2024-02-15T09:37:46;4.57;;;1.10;;
71715;SDS011;59568;52.128;5.434;2024-02-15T09:40:18;2.20;;;1.20;;
71715;SDS011;59568;52.128;5.434;2024-02-15T09:42:47;3.70;;;1.10;;
71715;SDS011;59568;52.128;5.434;2024-02-15T09:45:14;3.13;;;1.40;;
71715;SDS011;59568;52.128;5.434;2024-02-15T09:47:43;7.70;;;1.03;;
71715;SDS011;59568;52.128;5.434;2024-02-15T09:50:11;2.97;;;1.13;;
71715;SDS011;59568;52.128;5.434;2024-02-15T09:52:43;2.85;;;1.23;;
71715;SDS011;59568;52.128;5.434;2024-02-15T09:55:11;5.07;;;1.58;;
71715;SDS011;59568;52.128;5.434;2024-02-15T09:57:42;4.13;;;1.10;;
71715;SDS011;59568;52.128;5.434;2024-02-15T10:00:11;3.00;;;1.10;;
71715;SDS011;59568;52.128;5.434;2024-02-15T10:02:41;4.18;;;1.83;;
71715;SDS011;59568;52.128;5.434;2024-02-15T10:05:14;8.18;;;1.83;;
71715;SDS011;59568;52.128;5.434;2024-02-15T10:07:41;2.97;;;1.10;;
71715;SDS011;59568;52.128;5.434;2024-02-15T10:10:16;6.30;;;2.08;;
71715;SDS011;59568;52.128;5.434;2024-02-15T10:18:01;4.07;;;1.52;;
71715;SDS011;59568;52.128;5.434;2024-02-15T10:20:30;3.75;;;1.55;;
71715;SDS011;59568;52.128;5.434;2024-02-15T10:25:27;5.63;;;1.73;;
71715;SDS011;59568;52.128;5.434;2024-02-15T10:28:05;7.03;;;1.65;;
71715;SDS011;59568;52.128;5.434;2024-02-15T10:30:47;8.27;;;1.50;;
71715;SDS011;59568;52.128;5.434;2024-02-15T10:33:18;7.30;;;1.70;;
71715;SDS011;59568;52.128;5.434;2024-02-15T10:35:47;4.72;;;1.42;;
71715;SDS011;59568;52.128;5.434;2024-02-15T10:38:14;7.83;;;1.80;;
71715;SDS011;59568;52.128;5.434;2024-02-15T10:40:45;9.23;;;1.63;;
71715;SDS011;59568;52.128;5.434;2024-02-15T10:43:13;10.63;;;2.03;;
71715;SDS011;59568;52.128;5.434;2024-02-15T10:45:43;4.28;;;1.55;;
71715;SDS011;59568;52.128;5.434;2024-02-15T10:48:12;5.18;;;1.50;;
71715;SDS011;59568;52.128;5.434;2024-02-15T10:50:42;6.27;;;1.73;;
71715;SDS011;59568;52.128;5.434;2024-02-15T10:53:21;8.52;;;2.05;;
71715;SDS011;59568;52.128;5.434;2024-02-15T10:55:53;3.50;;;1.23;;
71715;SDS011;59568;52.128;5.434;2024-02-15T10:58:33;4.43;;;1.50;;
71715;SDS011;59568;52.128;5.434;2024-02-15T11:01:07;7.15;;;2.13;;
71715;SDS011;59568;52.128;5.434;2024-02-15T11:03:45;10.37;;;1.70;;
71715;SDS011;59568;52.128;5.434;2024-02-15T11:06:24;7.90;;;1.77;;
71715;SDS011;59568;52.128;5.434;2024-02-15T11:08:54;6.07;;;1.83;;
71715;SDS011;59568;52.128;5.434;2024-02-15T11:11:22;7.53;;;2.05;;
71715;SDS011;59568;52.128;5.434;2024-02-15T11:13:49;5.95;;;2.05;;
71715;SDS011;59568;52.128;5.434;2024-02-15T11:16:43;5.03;;;2.50;;
71715;SDS011;59568;52.128;5.434;2024-02-15T11:19:10;5.45;;;2.50;;
71715;SDS011;59568;52.128;5.434;2024-02-15T11:22:09;6.80;;;2.20;;
71715;SDS011;59568;52.128;5.434;2024-02-15T11:24:45;6.53;;;2.22;;
71715;SDS011;59568;52.128;5.434;2024-02-15T11:27:23;6.13;;;2.50;;
71715;SDS011;59568;52.128;5.434;2024-02-15T11:29:57;5.43;;;2.37;;
71715;SDS011;59568;52.128;5.434;2024-02-15T11:35:12;7.45;;;2.60;;
71715;SDS011;59568;52.128;5.434;2024-02-15T11:43:08;5.03;;;2.40;;
71715;SDS011;59568;52.128;5.434;2024-02-15T11:45:37;5.45;;;2.92;;
71715;SDS011;59568;52.128;5.434;2024-02-15T11:48:08;5.75;;;2.53;;
71715;SDS011;59568;52.128;5.434;2024-02-15T11:50:38;7.43;;;2.83;;
71715;SDS011;59568;52.128;5.434;2024-02-15T11:53:06;9.00;;;2.80;;
71715;SDS011;59568;52.128;5.434;2024-02-15T11:55:38;6.40;;;2.97;;
71715;SDS011;59568;52.128;5.434;2024-02-15T11:58:08;6.30;;;2.90;;
71715;SDS011;59568;52.128;5.434;2024-02-15T12:00:35;6.40;;;2.97;;
71715;SDS011;59568;52.128;5.434;2024-02-15T12:03:24;6.05;;;2.70;;
71715;SDS011;59568;52.128;5.434;2024-02-15T12:06:28;7.45;;;2.75;;
71715;SDS011;59568;52.128;5.434;2024-02-15T12:09:19;8.53;;;2.67;;
71715;SDS011;59568;52.128;5.434;2024-02-15T12:12:05;4.45;;;2.42;;
71715;SDS011;59568;52.128;5.434;2024-02-15T12:14:58;4.38;;;2.50;;
71715;SDS011;59568;52.128;5.434;2024-02-15T12:17:53;7.35;;;2.63;;
71715;SDS011;59568;52.128;5.434;2024-02-15T12:20:38;6.72;;;2.65;;
71715;SDS011;59568;52.128;5.434;2024-02-15T12:23:06;7.70;;;2.80;;
71715;SDS011;59568;52.128;5.434;2024-02-15T12:25:34;5.63;;;2.70;;
71715;SDS011;59568;52.128;5.434;2024-02-15T12:28:02;7.88;;;3.17;;
71715;SDS011;59568;52.128;5.434;2024-02-15T12:30:34;6.70;;;2.70;;
71715;SDS011;59568;52.128;5.434;2024-02-15T12:33:13;6.13;;;2.47;;
71715;SDS011;59568;52.128;5.434;2024-02-15T12:35:47;4.87;;;2.63;;
71715;SDS011;59568;52.128;5.434;2024-02-15T12:38:14;6.25;;;2.50;;
71715;SDS011;59568;52.128;5.434;2024-02-15T12:40:44;7.25;;;2.58;;
71715;SDS011;59568;52.128;5.434;2024-02-15T12:43:13;7.43;;;2.63;;
71715;SDS011;59568;52.128;5.434;2024-02-15T12:45:42;5.72;;;2.28;;
71715;SDS011;59568;52.128;5.434;2024-02-15T12:48:09;9.90;;;3.10;;
71715;SDS011;59568;52.128;5.434;2024-02-15T12:50:38;5.70;;;2.30;;
71715;SDS011;59568;52.128;5.434;2024-02-15T12:53:06;5.32;;;2.30;;
71715;SDS011;59568;52.128;5.434;2024-02-15T12:55:35;7.82;;;2.75;;
71715;SDS011;59568;52.128;5.434;2024-02-15T12:58:04;7.82;;;2.55;;
71715;SDS011;59568;52.128;5.434;2024-02-15T13:00:36;6.17;;;2.30;;
71715;SDS011;59568;52.128;5.434;2024-02-15T13:03:07;6.65;;;2.53;;
71715;SDS011;59568;52.128;5.434;2024-02-15T13:05:37;4.80;;;2.08;;
71715;SDS011;59568;52.128;5.434;2024-02-15T13:08:05;3.75;;;1.80;;
71715;SDS011;59568;52.128;5.434;2024-02-15T13:10:37;6.97;;;1.60;;
71715;SDS011;59568;52.128;5.434;2024-02-15T13:13:06;4.83;;;1.30;;
71715;SDS011;59568;52.128;5.434;2024-02-15T13:15:36;5.22;;;1.70;;
71715;SDS011;59568;52.128;5.434;2024-02-15T13:18:04;3.78;;;1.63;;
71715;SDS011;59568;52.128;5.434;2024-02-15T13:20:32;3.88;;;1.15;;
71715;SDS011;59568;52.128;5.434;2024-02-15T13:23:02;5.22;;;1.38;;
71715;SDS011;59568;52.128;5.434;2024-02-15T13:25:36;4.10;;;1.17;;
71715;SDS011;59568;52.128;5.434;2024-02-15T13:28:04;4.53;;;1.50;;
71715;SDS011;59568;52.128;5.434;2024-02-15T13:30:32;6.63;;;1.70;;
71715;SDS011;59568;52.128;5.434;2024-02-15T13:32:59;6.15;;;1.30;;
71715;SDS011;59568;52.128;5.434;2024-02-15T13:35:26;4.53;;;1.20;;
71715;SDS011;59568;52.128;5.434;2024-02-15T13:37:54;3.83;;;1.07;;
71715;SDS011;59568;52.128;5.434;2024-02-15T13:40:25;5.28;;;1.23;;
71715;SDS011;59568;52.128;5.434;2024-02-15T13:42:54;4.32;;;1.27;;
71715;SDS011;59568;52.128;5.434;2024-02-15T13:45:31;5.72;;;1.45;;
71715;SDS011;59568;52.128;5.434;2024-02-15T13:48:06;5.75;;;1.42;;
71715;SDS011;59568;52.128;5.434;2024-02-15T13:50:36;2.53;;;1.20;;
71715;SDS011;59568;52.128;5.434;2024-02-15T13:53:06;5.38;;;1.40;;
71715;SDS011;59568;52.128;5.434;2024-02-15T13:55:36;4.13;;;1.20;;
71715;SDS011;59568;52.128;5.434;2024-02-15T13:58:04;4.13;;;1.10;;
71715;SDS011;59568;52.128;5.434;2024-02-15T14:00:31;5.93;;;1.58;;
71715;SDS011;59568;52.128;5.434;2024-02-15T14:03:01;3.40;;;0.93;;
71715;SDS011;59568;52.128;5.434;2024-02-15T14:05:30;4.22;;;1.30;;
71715;SDS011;59568;52.128;5.434;2024-02-15T14:07:58;3.83;;;1.38;;
71715;SDS011;59568;52.128;5.434;2024-02-15T14:10:27;5.55;;;1.42;;
71715;SDS011;59568;52.128;5.434;2024-02-15T14:12:55;5.43;;;1.90;;
71715;SDS011;59568;52.128;5.434;2024-02-15T14:15:31;4.33;;;1.60;;
71715;SDS011;59568;52.128;5.434;2024-02-15T14:18:10;5.50;;;1.60;;
71715;SDS011;59568;52.128;5.434;2024-02-15T14:20:42;4.10;;;1.65;;
71715;SDS011;59568;52.128;5.434;2024-02-15T14:23:10;3.83;;;1.50;;
71715;SDS011;59568;52.128;5.434;2024-02-15T14:25:41;3.47;;;1.85;;
71715;SDS011;59568;52.128;5.434;2024-02-15T14:28:12;3.80;;;1.60;;
71715;SDS011;59568;52.128;5.434;2024-02-15T14:30:41;3.90;;;1.70;;
71715;SDS011;59568;52.128;5.434;2024-02-15T14:33:27;4.28;;;2.08;;
71715;SDS011;59568;52.128;5.434;2024-02-15T14:35:57;4.55;;;1.50;;
71715;SDS011;59568;52.128;5.434;2024-02-15T14:38:27;4.40;;;2.00;;
71715;SDS011;59568;52.128;5.434;2024-02-15T14:40:54;3.80;;;1.57;;
71715;SDS011;59568;52.128;5.434;2024-02-15T14:43:24;4.40;;;2.08;;
71715;SDS011;59568;52.128;5.434;2024-02-15T14:45:54;3.08;;;1.52;;
71715;SDS011;59568;52.128;5.434;2024-02-15T14:48:24;5.90;;;1.85;;
71715;SDS011;59568;52.128;5.434;2024-02-15T14:50:52;5.57;;;1.70;;
71715;SDS011;59568;52.128;5.434;2024-02-15T14:53:20;7.23;;;1.90;;
71715;SDS011;59568;52.128;5.434;2024-02-15T14:55:48;2.88;;;1.40;;
71715;SDS011;59568;52.128;5.434;2024-02-15T14:58:16;6.72;;;1.58;;
71715;SDS011;59568;52.128;5.434;2024-02-15T15:00:45;3.90;;;1.35;;
71715;SDS011;59568;52.128;5.434;2024-02-15T15:03:14;4.55;;;1.13;;
71715;SDS011;59568;52.128;5.434;2024-02-15T15:05:43;3.40;;;1.50;;
71715;SDS011;59568;52.128;5.434;2024-02-15T15:08:30;4.45;;;1.77;;
71715;SDS011;59568;52.128;5.434;2024-02-15T15:11:17;4.70;;;1.45;;
71715;SDS011;59568;52.128;5.434;2024-02-15T15:14:03;5.28;;;1.80;;
71715;SDS011;59568;52.128;5.434;2024-02-15T15:16:33;3.08;;;1.38;;
71715;SDS011;59568;52.128;5.434;2024-02-15T15:19:01;3.77;;;1.60;;